Time;durP1;ratioP1;P1;durP2;ratioP2;P2;SDS_P1;SDS_P2;PMS_P1;PMS_P2;Temp;Humidity;BMP_temperature;BMP_pressure;BME280_temperature;BME280_humidity;BME280_pressure;Samples;Min_cycle;Max_cycle;Signal;HPM_P1;HPM_P2
2021/10/17 00:00:12;;;;;;;17.00;13.23;;;;;;;;;;4990606;28;20284;-79
2021/10/17 00:02:40;;;;;;;20.87;12.97;;;;;;;;;;4981958;28;20280;-79
2021/10/17 00:05:08;;;;;;;15.67;12.37;;;;;;;;;;4972819;28;20198;-79
2021/10/17 00:07:35;;;;;;;15.33;12.20;;;;;;;;;;4977214;28;20299;-79
2021/10/17 00:10:02;;;;;;;14.57;11.77;;;;;;;;;;4982014;28;20323;-79
2021/10/17 00:12:29;;;;;;;14.27;11.70;;;;;;;;;;4986181;28;20655;-79
2021/10/17 00:14:58;;;;;;;15.47;12.03;;;;;;;;;;4980442;28;20667;-79
2021/10/17 00:17:25;;;;;;;14.00;11.37;;;;;;;;;;4991780;28;20315;-79
2021/10/17 00:19:53;;;;;;;14.33;11.73;;;;;;;;;;4990175;28;20194;-79
2021/10/17 00:22:20;;;;;;;13.40;11.63;;;;;;;;;;4984116;28;20294;-80
2021/10/17 00:24:47;;;;;;;14.77;11.20;;;;;;;;;;4991965;28;20275;-79
2021/10/17 00:27:15;;;;;;;15.30;11.10;;;;;;;;;;4974982;28;20673;-79
2021/10/17 00:29:42;;;;;;;13.37;10.20;;;;;;;;;;4977113;28;20327;-79
2021/10/17 00:32:13;;;;;;;12.93;9.73;;;;;;;;;;4991817;28;20233;-79
2021/10/17 00:34:40;;;;;;;13.23;10.67;;;;;;;;;;4991323;28;20595;-79
2021/10/17 00:37:08;;;;;;;12.67;10.57;;;;;;;;;;4990843;28;20203;-79
2021/10/17 00:39:35;;;;;;;11.47;9.57;;;;;;;;;;4989826;28;20203;-79
2021/10/17 00:42:04;;;;;;;11.60;10.23;;;;;;;;;;4972248;28;20226;-79
2021/10/17 00:44:32;;;;;;;11.80;10.37;;;;;;;;;;4972461;28;20200;-79
2021/10/17 00:46:59;;;;;;;12.67;9.73;;;;;;;;;;4975519;28;20286;-79
2021/10/17 00:49:27;;;;;;;13.13;10.47;;;;;;;;;;4987485;28;20286;-79
2021/10/17 00:51:55;;;;;;;14.37;10.30;;;;;;;;;;4980967;28;20233;-79
2021/10/17 00:54:22;;;;;;;12.83;10.20;;;;;;;;;;4991026;28;20286;-79
2021/10/17 00:56:49;;;;;;;10.87;9.60;;;;;;;;;;4978261;28;20218;-79
2021/10/17 00:59:16;;;;;;;12.27;9.90;;;;;;;;;;4980895;28;20229;-79
2021/10/17 01:01:43;;;;;;;11.43;9.63;;;;;;;;;;4972456;28;20203;-79
2021/10/17 01:04:11;;;;;;;13.30;10.27;;;;;;;;;;4977231;28;20295;-79
2021/10/17 01:06:39;;;;;;;11.97;9.30;;;;;;;;;;4976566;28;20691;-78
2021/10/17 01:09:07;;;;;;;13.23;9.90;;;;;;;;;;4991044;28;20198;-79
2021/10/17 01:11:41;;;;;;;11.67;9.97;;;;;;;;;;4973148;28;20231;-79
2021/10/17 01:14:09;;;;;;;14.97;10.63;;;;;;;;;;4971769;28;20634;-79
2021/10/17 01:16:36;;;;;;;12.37;10.10;;;;;;;;;;4986949;28;20671;-79
2021/10/17 01:19:04;;;;;;;13.70;10.47;;;;;;;;;;4986104;28;20646;-79
2021/10/17 01:21:32;;;;;;;13.07;10.57;;;;;;;;;;4977456;28;20196;-79
2021/10/17 01:23:59;;;;;;;14.23;10.90;;;;;;;;;;4990630;28;20297;-79
2021/10/17 01:26:27;;;;;;;15.13;10.53;;;;;;;;;;4979885;28;20281;-79
2021/10/17 01:28:54;;;;;;;13.47;10.77;;;;;;;;;;4990584;28;20254;-79
2021/10/17 01:31:21;;;;;;;13.23;9.90;;;;;;;;;;4975202;28;20253;-79
2021/10/17 01:33:48;;;;;;;12.87;9.67;;;;;;;;;;4971008;28;20239;-79
2021/10/17 01:36:16;;;;;;;11.80;10.07;;;;;;;;;;4974672;28;20691;-79
2021/10/17 01:38:45;;;;;;;12.10;10.07;;;;;;;;;;4971322;28;20209;-79
2021/10/17 01:41:12;;;;;;;12.63;10.27;;;;;;;;;;4984787;28;20293;-79
2021/10/17 01:43:39;;;;;;;11.10;9.43;;;;;;;;;;4989146;28;20373;-79
2021/10/17 01:46:06;;;;;;;12.60;10.20;;;;;;;;;;4971270;28;20775;-79
2021/10/17 01:48:33;;;;;;;12.77;10.23;;;;;;;;;;4971078;28;20249;-79
2021/10/17 01:51:01;;;;;;;12.57;10.27;;;;;;;;;;4977215;28;20776;-79
2021/10/17 01:53:29;;;;;;;13.70;10.33;;;;;;;;;;4975600;28;20754;-79
2021/10/17 01:55:58;;;;;;;14.57;10.50;;;;;;;;;;4990162;28;20207;-79
2021/10/17 01:58:25;;;;;;;13.03;10.00;;;;;;;;;;4986094;28;20227;-79
2021/10/17 02:00:53;;;;;;;12.57;10.20;;;;;;;;;;4971070;28;20286;-79
2021/10/17 02:03:20;;;;;;;11.00;9.90;;;;;;;;;;4985593;28;20255;-79
2021/10/17 02:05:47;;;;;;;12.53;10.80;;;;;;;;;;4990942;28;20234;-79
2021/10/17 02:08:14;;;;;;;13.90;10.40;;;;;;;;;;4989976;28;20286;-79
2021/10/17 02:10:42;;;;;;;12.50;10.30;;;;;;;;;;4989858;28;20232;-79
2021/10/17 02:13:10;;;;;;;12.00;9.63;;;;;;;;;;4977618;28;20297;-79
2021/10/17 02:15:37;;;;;;;17.13;10.70;;;;;;;;;;4990387;28;20297;-79
2021/10/17 02:18:04;;;;;;;13.20;10.90;;;;;;;;;;4980619;28;20298;-78
2021/10/17 02:20:34;;;;;;;13.60;10.83;;;;;;;;;;4970903;28;20198;-79
2021/10/17 02:23:04;;;;;;;13.50;10.80;;;;;;;;;;4971169;28;20214;-79
2021/10/17 02:25:31;;;;;;;14.87;11.23;;;;;;;;;;4981572;28;20198;-79
2021/10/17 02:27:58;;;;;;;14.03;11.20;;;;;;;;;;4990418;28;20274;-79
2021/10/17 02:30:27;;;;;;;16.40;11.57;;;;;;;;;;4990212;28;20308;-79
2021/10/17 02:32:54;;;;;;;14.60;11.10;;;;;;;;;;4989762;28;20233;-79
2021/10/17 02:35:21;;;;;;;14.23;11.77;;;;;;;;;;4976341;28;20750;-79
2021/10/17 02:37:48;;;;;;;13.47;11.63;;;;;;;;;;4978683;28;20234;-79
2021/10/17 02:40:15;;;;;;;15.57;12.50;;;;;;;;;;4977465;28;20278;-79
2021/10/17 02:42:43;;;;;;;15.27;12.00;;;;;;;;;;4970005;28;20207;-79
2021/10/17 02:45:10;;;;;;;15.23;12.13;;;;;;;;;;4970591;28;20300;-79
2021/10/17 02:47:39;;;;;;;14.20;12.37;;;;;;;;;;4979574;28;20304;-79
2021/10/17 02:50:07;;;;;;;13.90;12.27;;;;;;;;;;4990000;28;20293;-79
2021/10/17 02:52:34;;;;;;;15.43;13.03;;;;;;;;;;4989632;28;20289;-79
2021/10/17 02:55:02;;;;;;;16.80;12.70;;;;;;;;;;4986151;28;20305;-78
2021/10/17 02:57:29;;;;;;;14.70;12.67;;;;;;;;;;4989407;28;20289;-79
2021/10/17 02:59:56;;;;;;;17.27;13.00;;;;;;;;;;4989352;28;20284;-78
2021/10/17 03:02:23;;;;;;;17.33;12.60;;;;;;;;;;4989612;28;20308;-79
2021/10/17 03:04:52;;;;;;;15.97;12.73;;;;;;;;;;4989882;28;20292;-79
2021/10/17 03:07:19;;;;;;;16.53;12.40;;;;;;;;;;4990000;28;20205;-78
2021/10/17 03:09:46;;;;;;;15.97;12.63;;;;;;;;;;4988759;28;20291;-79
2021/10/17 03:12:13;;;;;;;15.43;12.40;;;;;;;;;;4989248;28;20312;-79
2021/10/17 03:14:41;;;;;;;14.93;12.10;;;;;;;;;;4986992;28;20293;-78
2021/10/17 03:17:08;;;;;;;14.57;12.07;;;;;;;;;;4973351;28;20208;-79
2021/10/17 03:19:35;;;;;;;16.37;12.20;;;;;;;;;;4974457;28;20216;-78
2021/10/17 03:22:04;;;;;;;14.97;12.57;;;;;;;;;;4989368;28;20301;-79
2021/10/17 03:24:31;;;;;;;16.70;12.73;;;;;;;;;;4990015;28;20292;-79
2021/10/17 03:26:58;;;;;;;14.10;12.43;;;;;;;;;;4989264;28;20288;-78
2021/10/17 03:29:25;;;;;;;15.80;12.23;;;;;;;;;;4986430;28;20226;-78
2021/10/17 03:31:52;;;;;;;17.53;12.43;;;;;;;;;;4988842;28;20320;-78
2021/10/17 03:34:20;;;;;;;15.90;11.50;;;;;;;;;;4989468;28;20331;-79
2021/10/17 03:36:47;;;;;;;15.00;11.73;;;;;;;;;;4983555;28;20240;-79
2021/10/17 03:39:15;;;;;;;15.23;11.80;;;;;;;;;;4973789;28;20283;-78
2021/10/17 03:41:42;;;;;;;13.60;10.97;;;;;;;;;;4989077;28;20202;-79
2021/10/17 03:44:10;;;;;;;11.90;10.43;;;;;;;;;;4988833;28;20291;-79
2021/10/17 03:46:37;;;;;;;11.30;10.10;;;;;;;;;;4989688;28;20234;-79
2021/10/17 03:49:04;;;;;;;11.67;10.27;;;;;;;;;;4988302;28;20232;-79
2021/10/17 03:51:31;;;;;;;12.77;10.67;;;;;;;;;;4989217;28;20305;-79
2021/10/17 03:53:58;;;;;;;12.80;10.20;;;;;;;;;;4982115;28;20263;-79
2021/10/17 03:56:27;;;;;;;13.43;10.63;;;;;;;;;;4972826;28;20245;-79
2021/10/17 03:58:54;;;;;;;12.50;9.97;;;;;;;;;;4972743;28;20288;-79
2021/10/17 04:01:21;;;;;;;14.60;10.53;;;;;;;;;;4972836;28;20281;-79
2021/10/17 04:03:48;;;;;;;11.67;9.37;;;;;;;;;;4992113;28;20305;-78
2021/10/17 04:06:16;;;;;;;11.17;9.93;;;;;;;;;;4992459;28;20244;-79
2021/10/17 04:08:44;;;;;;;13.07;10.03;;;;;;;;;;4992240;28;20299;-78
2021/10/17 04:11:11;;;;;;;11.93;9.57;;;;;;;;;;4982953;28;20221;-78
2021/10/17 04:13:40;;;;;;;12.47;9.40;;;;;;;;;;4992338;28;20232;-78
2021/10/17 04:16:08;;;;;;;12.37;9.57;;;;;;;;;;4981587;28;20660;-78
2021/10/17 04:18:35;;;;;;;12.97;9.50;;;;;;;;;;4982552;28;20241;-77
2021/10/17 04:21:02;;;;;;;12.10;9.57;;;;;;;;;;4990107;28;20299;-78
2021/10/17 04:23:29;;;;;;;11.57;9.27;;;;;;;;;;4978377;28;20289;-79
2021/10/17 04:25:56;;;;;;;12.83;10.10;;;;;;;;;;4991918;28;20227;-79
2021/10/17 04:28:23;;;;;;;11.67;9.30;;;;;;;;;;4991629;28;20287;-79
2021/10/17 04:30:52;;;;;;;12.03;9.33;;;;;;;;;;4990775;28;20217;-78
2021/10/17 04:33:19;;;;;;;12.40;9.57;;;;;;;;;;4974672;28;20268;-79
2021/10/17 04:35:47;;;;;;;11.17;9.57;;;;;;;;;;4972098;28;20289;-79
2021/10/17 04:38:14;;;;;;;13.67;9.10;;;;;;;;;;4972284;28;20297;-78
2021/10/17 04:40:42;;;;;;;12.00;9.00;;;;;;;;;;4976348;28;20197;-79
2021/10/17 04:43:10;;;;;;;10.10;8.63;;;;;;;;;;4991913;28;20691;-79
2021/10/17 04:45:37;;;;;;;12.50;9.50;;;;;;;;;;4990407;28;20293;-78
2021/10/17 04:48:06;;;;;;;11.43;8.97;;;;;;;;;;4991818;28;20684;-79
2021/10/17 04:50:33;;;;;;;9.67;8.67;;;;;;;;;;4990933;28;20279;-78
2021/10/17 04:53:00;;;;;;;12.77;9.10;;;;;;;;;;4974560;28;20300;-79
2021/10/17 04:55:28;;;;;;;11.00;7.97;;;;;;;;;;4982945;28;20199;-79
2021/10/17 04:57:55;;;;;;;10.70;8.10;;;;;;;;;;4980404;28;20266;-79
2021/10/17 05:00:22;;;;;;;12.23;9.10;;;;;;;;;;4979086;28;20213;-79
2021/10/17 05:02:49;;;;;;;10.13;8.27;;;;;;;;;;4970068;28;20279;-78
2021/10/17 05:05:18;;;;;;;10.50;8.53;;;;;;;;;;4989522;28;20236;-78
2021/10/17 05:07:45;;;;;;;9.57;8.50;;;;;;;;;;4991484;28;20289;-78
2021/10/17 05:10:12;;;;;;;10.27;8.43;;;;;;;;;;4991323;28;20311;-79
2021/10/17 05:12:40;;;;;;;10.53;8.47;;;;;;;;;;4991196;28;20319;-79
2021/10/17 05:15:07;;;;;;;10.80;7.90;;;;;;;;;;4991166;28;20235;-79
2021/10/17 05:17:34;;;;;;;10.23;8.13;;;;;;;;;;4991086;28;20237;-79
2021/10/17 05:20:01;;;;;;;10.90;7.57;;;;;;;;;;4976889;28;20282;-78
2021/10/17 05:22:30;;;;;;;10.63;8.57;;;;;;;;;;4980201;28;20288;-78
2021/10/17 05:24:57;;;;;;;10.73;8.00;;;;;;;;;;4990993;28;20293;-78
2021/10/17 05:27:25;;;;;;;10.13;7.90;;;;;;;;;;4991152;28;20239;-78
2021/10/17 05:29:52;;;;;;;10.27;8.53;;;;;;;;;;4990530;28;20280;-79
2021/10/17 05:32:20;;;;;;;9.80;7.90;;;;;;;;;;4990795;28;20320;-78
2021/10/17 05:34:48;;;;;;;9.73;8.07;;;;;;;;;;4990457;28;20233;-78
2021/10/17 05:37:15;;;;;;;11.17;8.23;;;;;;;;;;4990859;28;20291;-78
2021/10/17 05:39:43;;;;;;;10.27;7.90;;;;;;;;;;4974037;28;20296;-78
2021/10/17 05:42:11;;;;;;;10.97;7.33;;;;;;;;;;4990265;28;20266;-79
2021/10/17 05:44:38;;;;;;;10.37;7.97;;;;;;;;;;4990618;28;20208;-78
2021/10/17 05:47:05;;;;;;;9.27;7.10;;;;;;;;;;4990928;28;20236;-78
2021/10/17 05:49:32;;;;;;;8.77;6.87;;;;;;;;;;4989645;28;20251;-78
2021/10/17 05:51:59;;;;;;;9.00;7.30;;;;;;;;;;4980836;28;20314;-78
2021/10/17 05:54:26;;;;;;;8.83;7.03;;;;;;;;;;4971563;28;20331;-78
2021/10/17 05:56:55;;;;;;;8.57;6.93;;;;;;;;;;4975048;28;20862;-78
2021/10/17 05:59:22;;;;;;;9.87;7.20;;;;;;;;;;4983784;28;20292;-78
2021/10/17 06:01:49;;;;;;;8.23;6.53;;;;;;;;;;4979721;28;20303;-78
2021/10/17 06:04:16;;;;;;;8.20;6.53;;;;;;;;;;4978348;28;20290;-78
2021/10/17 06:06:44;;;;;;;8.80;6.63;;;;;;;;;;4987673;28;20280;-78
2021/10/17 06:09:11;;;;;;;8.10;6.17;;;;;;;;;;4990638;28;20207;-78
2021/10/17 06:11:39;;;;;;;7.87;5.87;;;;;;;;;;4971730;28;20741;-78
2021/10/17 06:14:08;;;;;;;8.10;5.97;;;;;;;;;;4970924;28;20205;-79
2021/10/17 06:16:35;;;;;;;7.20;5.93;;;;;;;;;;4969923;28;20294;-78
2021/10/17 06:19:04;;;;;;;6.90;5.70;;;;;;;;;;4970494;28;20299;-78
2021/10/17 06:21:31;;;;;;;8.53;5.83;;;;;;;;;;4970404;28;20230;-78
2021/10/17 06:23:58;;;;;;;5.77;5.03;;;;;;;;;;4970505;28;20301;-77
2021/10/17 06:26:26;;;;;;;6.10;5.50;;;;;;;;;;4984478;28;20764;-79
2021/10/17 06:28:53;;;;;;;7.60;5.83;;;;;;;;;;4989619;28;20307;-79
2021/10/17 06:31:21;;;;;;;6.40;5.50;;;;;;;;;;4990264;28;20287;-79
2021/10/17 06:33:48;;;;;;;7.27;5.60;;;;;;;;;;4988036;28;20323;-76
2021/10/17 06:36:17;;;;;;;6.33;5.37;;;;;;;;;;4972771;28;20256;-79
2021/10/17 06:38:44;;;;;;;8.80;5.60;;;;;;;;;;4976504;28;20234;-79
2021/10/17 06:41:11;;;;;;;5.60;4.67;;;;;;;;;;4970716;28;20295;-79
2021/10/17 06:43:38;;;;;;;8.23;5.50;;;;;;;;;;4970322;28;20237;-76
2021/10/17 06:46:05;;;;;;;6.80;4.83;;;;;;;;;;4984008;28;20257;-79
2021/10/17 06:48:35;;;;;;;6.03;5.43;;;;;;;;;;4990247;28;20243;-79
2021/10/17 06:51:02;;;;;;;6.23;5.37;;;;;;;;;;4990010;28;20288;-79
2021/10/17 06:53:29;;;;;;;5.30;4.80;;;;;;;;;;4983745;28;20221;-79
2021/10/17 06:55:56;;;;;;;7.97;5.50;;;;;;;;;;4970039;28;20289;-79
2021/10/17 06:58:24;;;;;;;6.37;5.20;;;;;;;;;;4985229;28;20223;-79
2021/10/17 07:00:51;;;;;;;6.47;5.03;;;;;;;;;;4989986;28;20287;-79
2021/10/17 07:03:18;;;;;;;6.30;5.13;;;;;;;;;;4984917;28;20224;-79
2021/10/17 07:05:46;;;;;;;6.60;5.07;;;;;;;;;;4989027;28;20198;-79
2021/10/17 07:08:14;;;;;;;5.83;4.47;;;;;;;;;;4973001;28;20286;-78
2021/10/17 07:10:41;;;;;;;5.67;4.60;;;;;;;;;;4988552;28;20229;-80
2021/10/17 07:13:08;;;;;;;6.47;5.10;;;;;;;;;;4978864;28;20226;-79
2021/10/17 07:15:35;;;;;;;7.03;5.10;;;;;;;;;;4975821;28;20297;-80
2021/10/17 07:18:02;;;;;;;6.23;4.77;;;;;;;;;;4978691;28;20206;-80
2021/10/17 07:20:29;;;;;;;5.90;5.00;;;;;;;;;;4989669;28;20292;-79
2021/10/17 07:22:58;;;;;;;4.87;4.37;;;;;;;;;;4989400;28;20200;-79
2021/10/17 07:25:25;;;;;;;5.00;4.27;;;;;;;;;;4988579;28;20248;-79
2021/10/17 07:27:53;;;;;;;5.23;4.23;;;;;;;;;;4990590;28;20233;-79
2021/10/17 07:30:20;;;;;;;6.40;4.50;;;;;;;;;;4992738;28;20209;-79
2021/10/17 07:32:48;;;;;;;7.10;4.47;;;;;;;;;;4992412;28;20690;-79
2021/10/17 07:35:36;;;;;;;7.47;4.80;;;;;;;;;;4979801;28;20257;-77
2021/10/17 07:38:08;;;;;;;4.97;4.47;;;;;;;;;;4983493;28;20194;-79
2021/10/17 07:40:40;;;;;;;6.67;4.43;;;;;;;;;;4981181;28;20251;-76
2021/10/17 07:45:57;;;;;;;6.17;4.83;;;;;;;;;;4985766;28;20287;-80
2021/10/17 07:48:36;;;;;;;6.07;4.70;;;;;;;;;;4991436;28;20206;-77
2021/10/17 07:51:03;;;;;;;5.97;5.00;;;;;;;;;;4985651;28;20289;-79
2021/10/17 07:53:42;;;;;;;6.07;4.60;;;;;;;;;;4974956;28;20617;-79
2021/10/17 07:56:12;;;;;;;6.23;5.00;;;;;;;;;;4980084;28;20206;-77
2021/10/17 08:01:32;;;;;;;5.47;4.60;;;;;;;;;;4974212;28;20676;-77
2021/10/17 08:04:13;;;;;;;4.70;4.07;;;;;;;;;;4979714;28;20683;-78
2021/10/17 08:06:40;;;;;;;5.20;4.43;;;;;;;;;;4984470;28;20239;-80
2021/10/17 08:09:08;;;;;;;5.40;4.23;;;;;;;;;;4975646;28;20289;-79
2021/10/17 08:14:47;;;;;;;4.83;4.27;;;;;;;;;;4903326;28;20201;-77
2021/10/17 08:17:30;;;;;;;5.27;4.33;;;;;;;;;;4912417;29;20295;-78
2021/10/17 08:20:13;;;;;;;4.90;4.40;;;;;;;;;;4911091;29;20201;-77
2021/10/17 08:22:40;;;;;;;5.17;4.23;;;;;;;;;;4907126;29;20702;-77
2021/10/17 08:25:09;;;;;;;5.50;4.40;;;;;;;;;;4909203;29;20200;-76
2021/10/17 08:27:36;;;;;;;4.90;4.30;;;;;;;;;;4911966;29;20292;-76
2021/10/17 08:30:12;;;;;;;5.60;4.63;;;;;;;;;;4910168;29;20296;-77
2021/10/17 08:32:39;;;;;;;5.30;4.43;;;;;;;;;;4902630;29;20224;-77
2021/10/17 08:35:07;;;;;;;5.60;4.67;;;;;;;;;;4901987;29;20299;-77
2021/10/17 08:37:34;;;;;;;5.10;4.47;;;;;;;;;;4915812;29;20288;-76
2021/10/17 08:40:02;;;;;;;4.73;4.23;;;;;;;;;;4899175;29;20668;-77
2021/10/17 08:42:30;;;;;;;5.00;4.50;;;;;;;;;;4905522;29;20284;-77
2021/10/17 08:44:58;;;;;;;5.17;4.63;;;;;;;;;;4903054;29;20212;-77
2021/10/17 08:47:26;;;;;;;5.13;4.50;;;;;;;;;;4910493;28;20292;-77
2021/10/17 08:49:54;;;;;;;4.80;3.97;;;;;;;;;;4972079;28;20213;-77
2021/10/17 08:52:21;;;;;;;5.40;4.37;;;;;;;;;;4973814;28;20320;-77
2021/10/17 08:54:49;;;;;;;4.70;4.27;;;;;;;;;;4985650;28;20209;-77
2021/10/17 08:57:16;;;;;;;4.85;4.40;;;;;;;;;;4987434;28;20206;-78
2021/10/17 08:59:47;;;;;;;5.23;4.23;;;;;;;;;;4978095;28;20584;-78
2021/10/17 09:02:15;;;;;;;5.17;4.47;;;;;;;;;;4987966;28;20685;-78
2021/10/17 09:04:42;;;;;;;5.23;4.73;;;;;;;;;;4975803;28;20199;-79
2021/10/17 09:07:19;;;;;;;5.37;4.87;;;;;;;;;;4978474;28;20229;-78
2021/10/17 09:10:01;;;;;;;12.30;8.70;;;;;;;;;;4988060;28;20292;-78
2021/10/17 09:12:29;;;;;;;6.33;4.90;;;;;;;;;;4980103;28;20312;-78
2021/10/17 09:15:17;;;;;;;6.33;4.57;;;;;;;;;;4987209;28;20230;-79
2021/10/17 09:18:02;;;;;;;5.60;4.90;;;;;;;;;;4979229;28;20277;-80
2021/10/17 09:20:30;;;;;;;5.50;5.00;;;;;;;;;;4974199;28;20238;-79
2021/10/17 09:23:00;;;;;;;6.13;4.77;;;;;;;;;;4989730;28;20648;-80
2021/10/17 09:25:30;;;;;;;6.07;4.93;;;;;;;;;;4984158;28;20203;-79
2021/10/17 09:27:58;;;;;;;5.47;4.90;;;;;;;;;;4980344;28;20724;-79
2021/10/17 09:30:26;;;;;;;6.47;5.23;;;;;;;;;;4977037;28;20291;-79
2021/10/17 09:32:54;;;;;;;7.03;5.68;;;;;;;;;;4986362;28;20532;-79
2021/10/17 09:35:32;;;;;;;7.47;4.70;;;;;;;;;;4979405;28;20277;-79
2021/10/17 09:38:01;;;;;;;7.20;6.50;;;;;;;;;;4977323;28;20206;-79
2021/10/17 09:40:28;;;;;;;7.27;5.60;;;;;;;;;;4989851;28;20609;-79
2021/10/17 09:43:03;;;;;;;6.40;5.50;;;;;;;;;;4978051;28;20325;-80
2021/10/17 09:45:32;;;;;;;6.17;4.73;;;;;;;;;;4980364;28;20386;-80
2021/10/17 09:47:59;;;;;;;7.13;4.90;;;;;;;;;;4983908;28;20266;-79
2021/10/17 09:50:26;;;;;;;7.30;4.90;;;;;;;;;;4989198;28;20752;-80
2021/10/17 09:53:03;;;;;;;6.13;4.80;;;;;;;;;;4989792;28;20308;-80
2021/10/17 09:55:30;;;;;;;5.10;4.60;;;;;;;;;;4973142;28;20213;-80
2021/10/17 09:57:58;;;;;;;5.88;5.28;;;;;;;;;;4986374;28;20251;-81
2021/10/17 10:00:25;;;;;;;5.28;4.75;;;;;;;;;;4988117;28;20204;-80
2021/10/17 10:02:54;;;;;;;6.10;4.88;;;;;;;;;;4982178;28;20242;-79
2021/10/17 10:05:24;;;;;;;6.43;5.50;;;;;;;;;;4980204;28;20698;-79
2021/10/17 10:07:52;;;;;;;6.57;5.32;;;;;;;;;;4981228;28;20205;-80
2021/10/17 10:10:20;;;;;;;6.05;5.18;;;;;;;;;;4979249;28;20325;-80
2021/10/17 10:12:48;;;;;;;6.05;5.45;;;;;;;;;;4957514;28;20308;-79
2021/10/17 10:15:16;;;;;;;5.85;5.13;;;;;;;;;;4990108;28;20297;-79
2021/10/17 10:17:44;;;;;;;7.00;5.40;;;;;;;;;;4978040;28;20289;-78
2021/10/17 10:20:13;;;;;;;6.55;5.82;;;;;;;;;;4986218;28;20251;-79
2021/10/17 10:22:40;;;;;;;6.25;5.20;;;;;;;;;;4987551;28;20658;-80
2021/10/17 10:25:09;;;;;;;6.60;5.70;;;;;;;;;;4988383;28;20202;-80
2021/10/17 10:27:37;;;;;;;6.95;5.70;;;;;;;;;;4981390;28;20207;-80
2021/10/17 10:30:21;;;;;;;6.63;5.40;;;;;;;;;;4978543;28;20400;-80
2021/10/17 10:33:03;;;;;;;6.32;5.70;;;;;;;;;;4978800;28;20634;-80
2021/10/17 10:35:31;;;;;;;6.28;5.68;;;;;;;;;;4972081;28;20294;-80
2021/10/17 10:37:58;;;;;;;6.93;6.00;;;;;;;;;;4987478;28;20289;-80
2021/10/17 10:40:26;;;;;;;7.95;5.53;;;;;;;;;;4987411;28;20288;-80
2021/10/17 10:42:54;;;;;;;7.47;6.38;;;;;;;;;;4981348;28;20290;-80
2021/10/17 10:45:22;;;;;;;6.80;6.10;;;;;;;;;;4988356;28;20277;-80
2021/10/17 10:47:50;;;;;;;6.93;6.22;;;;;;;;;;4987909;28;20206;-79
2021/10/17 10:50:34;;;;;;;6.93;6.22;;;;;;;;;;4988484;28;20229;-80
2021/10/17 10:53:03;;;;;;;7.00;6.10;;;;;;;;;;4979341;28;20225;-80
2021/10/17 10:55:44;;;;;;;7.18;6.20;;;;;;;;;;4988018;28;20732;-81
2021/10/17 10:58:21;;;;;;;7.47;6.68;;;;;;;;;;4989512;28;20241;-79
2021/10/17 11:00:48;;;;;;;7.22;6.38;;;;;;;;;;4989515;28;20201;-80
2021/10/17 11:03:16;;;;;;;8.15;6.50;;;;;;;;;;4990798;28;20318;-80
2021/10/17 11:06:14;;;;;;;7.35;6.32;;;;;;;;;;4992043;28;20556;-81
2021/10/17 11:08:43;;;;;;;7.78;6.53;;;;;;;;;;4982115;28;20281;-80
2021/10/17 11:11:11;;;;;;;9.23;6.57;;;;;;;;;;4980186;28;20285;-80
2021/10/17 11:13:40;;;;;;;8.25;7.00;;;;;;;;;;4988461;28;20237;-80
2021/10/17 11:16:09;;;;;;;7.53;6.22;;;;;;;;;;4982543;28;20339;-80
2021/10/17 11:18:38;;;;;;;9.27;6.75;;;;;;;;;;4982368;28;20264;-81
2021/10/17 11:21:07;;;;;;;7.25;6.50;;;;;;;;;;4993003;28;20262;-81
2021/10/17 11:23:37;;;;;;;6.30;5.70;;;;;;;;;;4992075;28;20193;-80
2021/10/17 11:26:07;;;;;;;7.70;6.03;;;;;;;;;;4990207;28;20289;-80
2021/10/17 11:28:35;;;;;;;7.25;5.82;;;;;;;;;;4978378;28;20233;-80
2021/10/17 11:31:07;;;;;;;8.57;5.82;;;;;;;;;;4985058;28;20225;-79
2021/10/17 11:33:35;;;;;;;6.20;5.47;;;;;;;;;;4977950;28;20321;-80
2021/10/17 11:36:02;;;;;;;5.82;5.22;;;;;;;;;;4976556;28;20224;-80
2021/10/17 11:38:29;;;;;;;8.70;5.70;;;;;;;;;;4991646;28;20649;-80
2021/10/17 11:41:06;;;;;;;8.13;6.00;;;;;;;;;;4975634;28;20697;-80
2021/10/17 11:43:39;;;;;;;7.03;5.68;;;;;;;;;;4984295;28;20278;-79
2021/10/17 11:46:07;;;;;;;7.20;5.72;;;;;;;;;;4979440;28;20241;-79
2021/10/17 11:48:35;;;;;;;6.00;5.38;;;;;;;;;;4992521;28;20206;-80
2021/10/17 11:51:05;;;;;;;6.18;5.38;;;;;;;;;;4988253;28;20205;-79
2021/10/17 11:53:32;;;;;;;6.30;5.63;;;;;;;;;;4984043;28;20213;-79
2021/10/17 11:56:00;;;;;;;5.60;5.10;;;;;;;;;;4982082;28;20205;-79
2021/10/17 11:58:27;;;;;;;5.88;5.28;;;;;;;;;;4989880;28;20277;-79
2021/10/17 12:00:58;;;;;;;7.88;5.93;;;;;;;;;;4989383;28;20237;-79
2021/10/17 12:03:25;;;;;;;6.85;5.50;;;;;;;;;;4984751;28;20306;-79
2021/10/17 12:05:53;;;;;;;6.00;5.40;;;;;;;;;;4991619;28;20234;-79
2021/10/17 12:08:22;;;;;;;7.10;5.50;;;;;;;;;;4984028;28;20562;-79
2021/10/17 12:10:56;;;;;;;7.15;5.53;;;;;;;;;;4988591;28;20229;-78
2021/10/17 12:13:23;;;;;;;6.85;5.20;;;;;;;;;;4975309;28;20301;-78
2021/10/17 12:16:01;;;;;;;7.60;5.10;;;;;;;;;;4971944;28;20290;-79
2021/10/17 12:18:31;;;;;;;5.72;5.03;;;;;;;;;;4988028;28;20294;-81
2021/10/17 12:20:58;;;;;;;6.95;5.00;;;;;;;;;;4983786;28;20206;-77
2021/10/17 12:23:26;;;;;;;5.72;5.22;;;;;;;;;;4983027;28;20206;-79
2021/10/17 12:25:53;;;;;;;6.85;5.50;;;;;;;;;;4980760;28;20689;-78
2021/10/17 12:28:21;;;;;;;8.77;5.68;;;;;;;;;;4990142;28;20285;-79
2021/10/17 12:30:49;;;;;;;6.50;5.78;;;;;;;;;;4981751;28;20289;-79
2021/10/17 12:33:32;;;;;;;6.15;5.18;;;;;;;;;;4987306;28;20241;-79
2021/10/17 12:36:02;;;;;;;6.50;5.68;;;;;;;;;;4974938;28;20252;-78
2021/10/17 12:38:30;;;;;;;7.05;5.28;;;;;;;;;;4983529;28;20245;-79
2021/10/17 12:40:59;;;;;;;6.38;5.43;;;;;;;;;;4978918;28;20389;-78
2021/10/17 12:43:27;;;;;;;6.38;5.10;;;;;;;;;;4986996;28;20225;-79
2021/10/17 12:45:54;;;;;;;6.90;5.53;;;;;;;;;;4974259;28;20278;-79
2021/10/17 12:48:35;;;;;;;5.45;4.95;;;;;;;;;;4991223;28;20209;-79
2021/10/17 12:51:03;;;;;;;5.97;5.38;;;;;;;;;;4972160;28;20202;-78
2021/10/17 12:53:31;;;;;;;5.18;4.65;;;;;;;;;;4984074;28;20568;-78
2021/10/17 12:55:59;;;;;;;5.20;4.70;;;;;;;;;;4983722;28;20288;-79
2021/10/17 12:58:28;;;;;;;5.50;5.00;;;;;;;;;;4991068;28;20217;-78
2021/10/17 13:01:02;;;;;;;5.22;4.57;;;;;;;;;;4974696;28;20250;-79
2021/10/17 13:03:30;;;;;;;5.18;4.50;;;;;;;;;;4974318;28;20668;-78
2021/10/17 13:05:58;;;;;;;5.57;4.70;;;;;;;;;;4985825;28;20204;-79
2021/10/17 13:08:27;;;;;;;5.60;5.10;;;;;;;;;;4991442;28;20652;-79
2021/10/17 13:11:07;;;;;;;5.18;4.35;;;;;;;;;;4988320;28;20236;-79
2021/10/17 13:13:34;;;;;;;5.53;4.68;;;;;;;;;;4977196;28;20214;-78
2021/10/17 13:16:02;;;;;;;5.47;4.65;;;;;;;;;;4987876;28;20312;-78
2021/10/17 13:18:29;;;;;;;4.70;4.20;;;;;;;;;;4984784;28;20725;-78
2021/10/17 13:20:57;;;;;;;5.07;4.57;;;;;;;;;;4982989;28;20277;-79
2021/10/17 13:23:24;;;;;;;6.75;5.63;;;;;;;;;;4988538;28;20570;-78
2021/10/17 13:25:56;;;;;;;7.80;5.80;;;;;;;;;;4976539;28;20633;-78
2021/10/17 13:28:25;;;;;;;5.50;5.00;;;;;;;;;;4984319;28;20209;-77
2021/10/17 13:30:54;;;;;;;5.25;4.75;;;;;;;;;;4980577;28;20206;-78
2021/10/17 13:33:22;;;;;;;5.10;4.60;;;;;;;;;;4986365;28;20275;-78
2021/10/17 13:35:49;;;;;;;6.70;5.30;;;;;;;;;;4988829;28;20220;-78
2021/10/17 13:38:16;;;;;;;5.45;4.90;;;;;;;;;;4971066;28;20285;-78
2021/10/17 13:40:43;;;;;;;5.70;5.20;;;;;;;;;;4974115;28;20203;-78
2021/10/17 13:43:12;;;;;;;5.22;4.68;;;;;;;;;;4977396;28;20203;-78
2021/10/17 13:45:39;;;;;;;6.90;5.60;;;;;;;;;;4984174;28;20294;-78
2021/10/17 13:48:07;;;;;;;5.88;5.00;;;;;;;;;;4980846;28;20305;-78
2021/10/17 13:50:34;;;;;;;5.60;4.78;;;;;;;;;;4980379;28;20284;-78
2021/10/17 13:53:02;;;;;;;6.28;5.30;;;;;;;;;;4979523;28;20233;-78
2021/10/17 13:55:30;;;;;;;5.70;5.07;;;;;;;;;;4985586;28;20249;-78
2021/10/17 13:57:57;;;;;;;5.32;4.57;;;;;;;;;;4984547;28;20316;-78
2021/10/17 14:00:26;;;;;;;5.35;4.75;;;;;;;;;;4980993;28;20673;-78
2021/10/17 14:02:55;;;;;;;5.60;5.07;;;;;;;;;;4975045;28;20226;-78
2021/10/17 14:05:22;;;;;;;5.32;4.80;;;;;;;;;;4980839;28;20194;-79
2021/10/17 14:07:49;;;;;;;5.90;5.30;;;;;;;;;;4982531;28;20229;-78
2021/10/17 14:10:16;;;;;;;6.07;5.07;;;;;;;;;;4975915;28;20281;-79
2021/10/17 14:12:44;;;;;;;6.63;5.75;;;;;;;;;;4980187;28;20211;-78
2021/10/17 14:15:11;;;;;;;7.82;5.90;;;;;;;;;;4984873;28;20723;-79
2021/10/17 14:17:39;;;;;;;6.65;5.95;;;;;;;;;;4987038;28;20244;-79
2021/10/17 14:20:08;;;;;;;6.38;5.38;;;;;;;;;;4986949;28;20289;-78
2021/10/17 14:22:35;;;;;;;7.53;5.60;;;;;;;;;;4986897;28;20644;-78
2021/10/17 14:25:03;;;;;;;6.47;5.57;;;;;;;;;;4985167;28;20277;-79
2021/10/17 14:27:30;;;;;;;6.82;5.18;;;;;;;;;;4989273;28;20237;-79
2021/10/17 14:29:59;;;;;;;5.85;5.25;;;;;;;;;;4982824;28;20658;-79
2021/10/17 14:32:26;;;;;;;7.00;5.97;;;;;;;;;;4985251;28;20665;-78
2021/10/17 14:34:55;;;;;;;7.00;5.95;;;;;;;;;;4984434;28;20226;-79
2021/10/17 14:37:22;;;;;;;8.82;6.25;;;;;;;;;;4976541;28;20281;-78
2021/10/17 14:39:49;;;;;;;6.40;5.80;;;;;;;;;;4970378;28;20212;-80
2021/10/17 14:42:16;;;;;;;6.65;6.05;;;;;;;;;;4987702;28;20297;-79
2021/10/17 14:44:44;;;;;;;5.60;5.10;;;;;;;;;;4984166;28;20282;-79
2021/10/17 14:47:11;;;;;;;6.80;6.10;;;;;;;;;;4980419;28;20198;-79
2021/10/17 14:49:38;;;;;;;8.10;6.45;;;;;;;;;;4982594;28;20666;-80
2021/10/17 14:52:07;;;;;;;8.65;6.20;;;;;;;;;;4972783;28;20289;-80